Time;durP1;ratioP1;P1;durP2;ratioP2;P2;SDS_P1;SDS_P2;PMS_P1;PMS_P2;Temp;Humidity;BMP_temperature;BMP_pressure;BME280_temperature;BME280_humidity;BME280_pressure;Samples;Min_cycle;Max_cycle;Signal;HPM_P1;HPM_P2
2022/04/02 00:02:10;;;;;;;0.73;0.73;;;0.60;99.90;;;;;;5093187;28;20436;-83
2022/04/02 00:04:36;;;;;;;0.30;0.30;;;0.60;99.90;;;;;;5093031;28;20848;-84
2022/04/02 00:07:03;;;;;;;0.30;0.30;;;0.60;99.90;;;;;;5093415;28;20428;-83
2022/04/02 00:09:30;;;;;;;0.30;0.20;;;0.60;99.90;;;;;;5093316;28;20487;-83
2022/04/02 00:11:57;;;;;;;0.30;0.30;;;0.60;99.90;;;;;;5093079;28;20439;-83
2022/04/02 00:14:25;;;;;;;0.37;0.37;;;0.60;99.90;;;;;;5093319;28;20475;-83
2022/04/02 00:16:52;;;;;;;0.30;0.20;;;0.60;99.90;;;;;;5093367;28;20439;-84
2022/04/02 00:19:20;;;;;;;0.30;0.30;;;0.60;99.90;;;;;;5093229;28;20474;-83
2022/04/02 00:21:47;;;;;;;0.30;0.30;;;0.60;99.90;;;;;;5093307;28;20444;-83
2022/04/02 00:24:13;;;;;;;0.50;0.40;;;0.60;99.90;;;;;;5093229;28;20427;-83
2022/04/02 00:26:40;;;;;;;0.30;0.20;;;0.60;99.90;;;;;;5093035;28;20943;-81
2022/04/02 00:29:10;;;;;;;0.30;0.30;;;0.50;99.90;;;;;;5093192;28;20464;-83
2022/04/02 00:31:40;;;;;;;0.30;0.30;;;0.60;99.90;;;;;;5092946;28;20436;-84
2022/04/02 00:34:08;;;;;;;0.30;0.30;;;0.60;99.90;;;;;;5093073;28;20476;-83
2022/04/02 00:36:37;;;;;;;0.30;0.30;;;0.60;99.90;;;;;;5093170;28;20491;-83
2022/04/02 00:39:05;;;;;;;0.57;0.57;;;0.60;99.90;;;;;;5093084;28;20522;-84
2022/04/02 00:41:32;;;;;;;0.30;0.30;;;0.60;99.90;;;;;;5093052;28;20433;-84
2022/04/02 00:44:01;;;;;;;0.40;0.40;;;0.50;99.90;;;;;;5092752;28;20959;-83
2022/04/02 00:46:28;;;;;;;0.30;0.30;;;0.50;99.90;;;;;;5092684;28;20947;-83
2022/04/02 00:48:56;;;;;;;0.30;0.20;;;0.60;99.90;;;;;;5092974;28;20450;-84
2022/04/02 00:51:23;;;;;;;0.30;0.20;;;0.50;99.90;;;;;;5093016;28;20451;-84
2022/04/02 00:53:51;;;;;;;0.40;0.40;;;0.50;99.90;;;;;;5094394;28;20521;-85
2022/04/02 00:56:19;;;;;;;0.57;0.57;;;0.50;99.90;;;;;;5096591;28;20452;-84
2022/04/02 00:58:46;;;;;;;0.43;0.43;;;0.50;99.90;;;;;;5096559;28;20440;-84
2022/04/02 01:01:13;;;;;;;0.30;0.30;;;0.60;99.90;;;;;;5096558;28;20451;-84
2022/04/02 01:03:40;;;;;;;0.30;0.30;;;0.60;99.90;;;;;;5096184;28;20472;-84
2022/04/02 01:06:10;;;;;;;0.53;0.53;;;0.60;99.90;;;;;;5096504;28;20439;-84
2022/04/02 01:08:37;;;;;;;0.30;0.30;;;0.70;99.90;;;;;;5096521;28;20501;-82
2022/04/02 01:11:04;;;;;;;0.30;0.30;;;0.70;99.90;;;;;;5096128;28;20488;-84
2022/04/02 01:13:31;;;;;;;0.30;0.30;;;0.70;99.90;;;;;;5095933;28;20475;-84
2022/04/02 01:15:58;;;;;;;0.50;0.50;;;0.70;99.90;;;;;;5096263;28;20456;-84
2022/04/02 01:18:25;;;;;;;0.40;0.40;;;0.70;99.90;;;;;;5095981;28;20448;-84
2022/04/02 01:20:53;;;;;;;0.30;0.20;;;0.60;99.90;;;;;;5096113;28;20475;-83
2022/04/02 01:23:28;;;;;;;0.30;0.20;;;0.60;99.90;;;;;;5096069;28;20448;-83
2022/04/02 01:25:56;;;;;;;0.30;0.30;;;0.70;99.90;;;;;;5096159;28;20481;-83
2022/04/02 01:28:23;;;;;;;1.23;0.83;;;0.70;99.90;;;;;;5095768;28;20455;-81
2022/04/02 01:30:50;;;;;;;0.30;0.20;;;0.70;99.90;;;;;;5095999;28;20464;-83
2022/04/02 01:33:16;;;;;;;2.00;0.60;;;0.70;99.90;;;;;;5095944;28;20483;-82
2022/04/02 01:35:43;;;;;;;0.40;0.40;;;0.70;99.90;;;;;;5095632;28;20448;-83
2022/04/02 01:38:10;;;;;;;0.67;0.67;;;0.60;99.90;;;;;;5095854;28;20817;-83
2022/04/02 01:40:38;;;;;;;1.10;0.40;;;0.70;99.90;;;;;;5095695;28;20453;-83
2022/04/02 01:43:05;;;;;;;0.40;0.40;;;0.60;99.90;;;;;;5095745;28;20448;-83
2022/04/02 01:45:32;;;;;;;0.90;0.90;;;0.60;99.90;;;;;;5095422;28;20447;-83
2022/04/02 01:47:59;;;;;;;0.60;0.60;;;0.60;99.90;;;;;;5095781;28;20423;-83
2022/04/02 01:50:25;;;;;;;0.73;0.57;;;0.60;99.90;;;;;;5095368;28;20464;-83
2022/04/02 01:52:52;;;;;;;0.30;0.30;;;0.60;99.90;;;;;;5095640;28;20476;-83
2022/04/02 01:55:19;;;;;;;0.30;0.30;;;0.50;99.90;;;;;;5095199;28;20816;-83
2022/04/02 01:57:47;;;;;;;0.57;0.57;;;0.60;99.90;;;;;;5095417;28;20456;-83
2022/04/02 02:00:15;;;;;;;2.20;0.90;;;0.60;99.90;;;;;;5095474;28;20939;-83
2022/04/02 02:02:42;;;;;;;0.30;0.30;;;0.60;99.90;;;;;;5095105;28;20939;-82
2022/04/02 02:05:09;;;;;;;0.70;0.70;;;0.60;99.90;;;;;;5094064;28;20484;-83
2022/04/02 02:07:36;;;;;;;0.30;0.30;;;0.60;99.90;;;;;;5095250;28;20448;-83
2022/04/02 02:10:03;;;;;;;0.30;0.30;;;0.60;99.90;;;;;;5094852;28;20464;-83
2022/04/02 02:12:30;;;;;;;0.40;0.40;;;0.60;99.90;;;;;;5095080;28;20448;-83
2022/04/02 02:14:58;;;;;;;0.67;0.57;;;0.60;99.90;;;;;;5094815;28;20955;-83
2022/04/02 02:17:25;;;;;;;0.97;0.97;;;0.60;99.90;;;;;;5095229;28;20444;-83
2022/04/02 02:19:52;;;;;;;0.30;0.30;;;0.50;99.90;;;;;;5094753;28;20460;-83
2022/04/02 02:22:18;;;;;;;0.50;0.50;;;0.50;99.90;;;;;;5095021;28;20450;-82
2022/04/02 02:24:45;;;;;;;0.30;0.30;;;0.60;99.90;;;;;;5095036;28;20430;-82
2022/04/02 02:27:12;;;;;;;0.30;0.30;;;0.60;99.90;;;;;;5094643;28;20419;-83
2022/04/02 02:29:38;;;;;;;0.40;0.40;;;0.60;99.90;;;;;;5094953;28;20467;-82
2022/04/02 02:32:08;;;;;;;0.37;0.37;;;0.60;99.90;;;;;;5095109;28;20447;-83
2022/04/02 02:37:19;;;;;;;0.73;0.73;;;0.50;99.90;;;;;;5094649;28;20400;-82
2022/04/02 02:39:46;;;;;;;0.63;0.63;;;0.50;99.90;;;;;;5101195;28;20474;-82
2022/04/02 02:42:13;;;;;;;0.30;0.30;;;0.50;99.90;;;;;;5102015;28;20426;-83
2022/04/02 02:44:40;;;;;;;0.30;0.30;;;0.50;99.90;;;;;;5099104;28;20444;-82
2022/04/02 02:47:08;;;;;;;0.50;0.50;;;0.50;99.90;;;;;;5096677;28;20427;-81
2022/04/02 02:49:35;;;;;;;0.33;0.33;;;0.50;99.90;;;;;;5094517;28;20471;-82
2022/04/02 02:52:01;;;;;;;0.30;0.30;;;0.50;99.90;;;;;;5094489;28;20444;-82
2022/04/02 02:54:28;;;;;;;0.43;0.43;;;0.50;99.90;;;;;;5094337;28;20472;-82
2022/04/02 02:56:55;;;;;;;0.60;0.60;;;0.50;99.90;;;;;;5094493;28;20433;-82
2022/04/02 02:59:22;;;;;;;0.67;0.53;;;0.50;99.90;;;;;;5094278;28;20444;-82
2022/04/02 03:01:49;;;;;;;0.30;0.30;;;0.50;99.90;;;;;;5094307;28;20459;-82
2022/04/02 03:04:18;;;;;;;0.40;0.40;;;0.50;99.90;;;;;;5093786;28;20472;-82
2022/04/02 03:06:45;;;;;;;0.40;0.40;;;0.50;99.90;;;;;;5094248;28;20427;-82
2022/04/02 03:09:12;;;;;;;0.50;0.50;;;0.60;99.90;;;;;;5094559;28;20475;-82
2022/04/02 03:11:38;;;;;;;0.77;0.77;;;0.50;99.90;;;;;;5094458;28;20456;-82
2022/04/02 03:14:05;;;;;;;0.60;0.60;;;0.50;99.90;;;;;;5094235;28;20487;-82
2022/04/02 03:16:33;;;;;;;0.40;0.40;;;0.50;99.90;;;;;;5094082;28;20429;-82
2022/04/02 03:19:02;;;;;;;0.83;0.83;;;0.50;99.90;;;;;;5093833;28;20980;-83
2022/04/02 03:21:30;;;;;;;0.50;0.50;;;0.50;99.90;;;;;;5093961;28;20477;-83
2022/04/02 03:23:57;;;;;;;0.30;0.30;;;0.50;99.90;;;;;;5094412;28;20448;-82
2022/04/02 03:26:25;;;;;;;0.87;0.60;;;0.50;99.90;;;;;;5094501;28;20447;-81
2022/04/02 03:28:52;;;;;;;0.30;0.30;;;0.50;99.90;;;;;;5094808;28;20432;-82
2022/04/02 03:31:18;;;;;;;0.60;0.40;;;0.50;99.90;;;;;;5094257;28;20426;-82
2022/04/02 03:33:45;;;;;;;0.63;0.40;;;0.40;99.90;;;;;;5093919;28;20460;-83
2022/04/02 03:36:12;;;;;;;0.30;0.30;;;0.40;99.90;;;;;;5094371;28;20436;-82
2022/04/02 03:38:41;;;;;;;0.30;0.30;;;0.50;99.90;;;;;;5093995;28;20440;-82
2022/04/02 03:41:08;;;;;;;0.30;0.30;;;0.50;99.90;;;;;;5093848;28;20471;-81
2022/04/02 03:43:35;;;;;;;0.30;0.30;;;0.50;99.90;;;;;;5094151;28;20451;-81
2022/04/02 03:48:42;;;;;;;0.30;0.30;;;0.40;99.90;;;;;;5092449;28;20494;-82
2022/04/02 03:51:09;;;;;;;0.53;0.53;;;0.50;99.90;;;;;;5093841;28;20464;-81
2022/04/02 03:53:35;;;;;;;0.40;0.40;;;0.40;99.90;;;;;;5093515;28;20482;-82
2022/04/02 03:56:05;;;;;;;0.53;0.53;;;0.40;99.90;;;;;;5094079;28;20777;-81
2022/04/02 03:58:32;;;;;;;0.50;0.47;;;0.40;99.90;;;;;;5094513;28;20448;-81
2022/04/02 04:00:59;;;;;;;0.30;0.30;;;0.40;99.90;;;;;;5095417;28;20472;-81
2022/04/02 04:03:26;;;;;;;0.40;0.40;;;0.30;99.90;;;;;;5095925;28;20831;-81
2022/04/02 04:05:53;;;;;;;0.40;0.40;;;0.30;99.90;;;;;;5095713;28;20444;-81
2022/04/02 04:08:19;;;;;;;1.80;0.90;;;0.30;99.90;;;;;;5094152;28;20490;-81
2022/04/02 04:10:46;;;;;;;0.30;0.30;;;0.20;99.90;;;;;;5094304;28;20986;-80
2022/04/02 04:13:14;;;;;;;0.30;0.30;;;0.20;99.90;;;;;;5094076;28;20448;-82
2022/04/02 04:15:41;;;;;;;0.63;0.63;;;0.20;99.90;;;;;;5094371;28;20444;-81
2022/04/02 04:18:08;;;;;;;0.37;0.37;;;0.20;99.90;;;;;;5094037;28;20501;-81
2022/04/02 04:20:35;;;;;;;0.40;0.40;;;0.10;99.90;;;;;;5093912;28;20464;-81
2022/04/02 04:23:02;;;;;;;0.87;0.87;;;0.10;99.90;;;;;;5093932;28;20462;-81
2022/04/02 04:25:29;;;;;;;0.30;0.30;;;0.10;99.90;;;;;;5095464;28;20436;-80
2022/04/02 04:27:55;;;;;;;0.80;0.80;;;0.10;99.90;;;;;;5096564;28;20440;-81
2022/04/02 04:30:23;;;;;;;0.60;0.60;;;0.10;99.90;;;;;;5100491;28;20442;-81
2022/04/02 04:32:50;;;;;;;0.40;0.33;;;0.10;99.90;;;;;;5101477;28;20447;-81
2022/04/02 04:35:17;;;;;;;0.30;0.30;;;0.00;99.90;;;;;;5098814;28;20855;-81
2022/04/02 04:37:43;;;;;;;0.30;0.30;;;0.00;99.90;;;;;;5097658;28;20451;-81
2022/04/02 04:40:11;;;;;;;0.30;0.30;;;0.00;99.90;;;;;;5097841;28;20469;-81
2022/04/02 04:42:38;;;;;;;0.97;0.60;;;0.00;99.90;;;;;;5099476;28;20490;-81
2022/04/02 04:45:05;;;;;;;0.30;0.30;;;0.00;99.90;;;;;;5100808;28;20411;-81
2022/04/02 04:47:34;;;;;;;0.37;0.37;;;0.00;99.90;;;;;;5097524;28;20425;-81
2022/04/02 04:50:00;;;;;;;0.30;0.30;;;0.00;99.90;;;;;;5097302;28;20467;-81
2022/04/02 04:52:27;;;;;;;1.27;1.07;;;0.10;99.90;;;;;;5097256;28;20435;-81
2022/04/02 04:54:54;;;;;;;0.57;0.57;;;0.00;99.90;;;;;;5096862;28;20544;-76
2022/04/02 04:57:21;;;;;;;0.30;0.30;;;0.10;99.90;;;;;;5096722;28;20411;-76
2022/04/02 04:59:47;;;;;;;0.40;0.40;;;0.10;99.90;;;;;;5096623;28;20476;-76
2022/04/02 05:02:14;;;;;;;0.50;0.50;;;0.10;99.90;;;;;;5097340;28;20418;-76
2022/04/02 05:04:42;;;;;;;0.30;0.30;;;0.10;99.90;;;;;;5096102;28;20475;-76
2022/04/02 05:07:09;;;;;;;0.30;0.30;;;0.20;99.90;;;;;;5096492;28;20457;-76
2022/04/02 05:09:36;;;;;;;0.90;0.90;;;0.20;99.90;;;;;;5096277;28;20459;-76
2022/04/02 05:12:03;;;;;;;0.40;0.40;;;0.20;99.90;;;;;;5096386;28;20417;-76
2022/04/02 05:14:30;;;;;;;0.90;0.90;;;0.20;99.90;;;;;;5096127;28;20814;-76
2022/04/02 05:16:57;;;;;;;0.30;0.20;;;0.20;99.90;;;;;;5096256;28;20454;-76
2022/04/02 05:19:24;;;;;;;0.30;0.30;;;0.20;99.90;;;;;;5095834;28;20961;-76
2022/04/02 05:21:52;;;;;;;0.30;0.20;;;0.20;99.90;;;;;;5096152;28;20422;-76
2022/04/02 05:24:19;;;;;;;0.30;0.30;;;0.20;99.90;;;;;;5095832;28;20991;-76
2022/04/02 05:26:47;;;;;;;0.30;0.30;;;0.20;99.90;;;;;;5096079;28;20497;-76
2022/04/02 05:29:14;;;;;;;0.43;0.43;;;0.20;99.90;;;;;;5096013;28;20894;-76
2022/04/02 05:31:41;;;;;;;0.30;0.30;;;0.10;99.90;;;;;;5095766;28;20931;-76
2022/04/02 05:34:09;;;;;;;0.30;0.30;;;0.20;99.90;;;;;;5095607;28;20450;-76
2022/04/02 05:36:37;;;;;;;0.30;0.30;;;0.20;99.90;;;;;;5095844;28;20501;-76
2022/04/02 05:39:05;;;;;;;0.30;0.30;;;0.20;99.90;;;;;;5095698;28;20448;-76
2022/04/02 05:41:31;;;;;;;0.30;0.30;;;0.30;99.90;;;;;;5094424;28;20973;-76
2022/04/02 05:43:58;;;;;;;0.47;0.47;;;0.20;99.90;;;;;;5095774;28;20447;-76
2022/04/02 05:46:25;;;;;;;0.60;0.60;;;0.20;99.90;;;;;;5095695;28;20430;-76
2022/04/02 05:48:52;;;;;;;0.30;0.30;;;0.20;99.90;;;;;;5095705;28;20429;-76
2022/04/02 05:51:19;;;;;;;0.73;0.73;;;0.30;99.90;;;;;;5095424;28;20951;-77
2022/04/02 05:53:45;;;;;;;0.30;0.30;;;0.30;99.90;;;;;;5095851;28;20423;-77
2022/04/02 05:56:14;;;;;;;1.47;0.83;;;0.30;99.90;;;;;;5101427;28;20470;-78
2022/04/02 05:58:41;;;;;;;0.60;0.60;;;0.30;99.90;;;;;;5101647;28;20429;-78
2022/04/02 06:01:08;;;;;;;0.40;0.40;;;0.30;99.90;;;;;;5099442;28;20506;-77
2022/04/02 06:03:36;;;;;;;0.47;0.47;;;0.30;99.90;;;;;;5096928;28;20467;-77
2022/04/02 06:06:03;;;;;;;0.83;0.83;;;0.30;99.90;;;;;;5097952;28;20415;-77
2022/04/02 06:08:30;;;;;;;0.30;0.30;;;0.30;99.90;;;;;;5096889;28;20440;-77
2022/04/02 06:10:57;;;;;;;0.73;0.73;;;0.30;99.90;;;;;;5097421;28;20490;-77
2022/04/02 06:13:25;;;;;;;0.57;0.57;;;0.40;99.90;;;;;;5096564;28;20452;-76
2022/04/02 06:15:52;;;;;;;0.30;0.30;;;0.40;99.90;;;;;;5095293;28;20457;-75
2022/04/02 06:18:19;;;;;;;0.30;0.30;;;0.40;99.90;;;;;;5095310;28;20452;-76
2022/04/02 06:20:47;;;;;;;0.30;0.20;;;0.50;99.90;;;;;;5095197;28;20485;-76
2022/04/02 06:23:14;;;;;;;0.30;0.30;;;0.40;99.90;;;;;;5095082;28;20550;-76
2022/04/02 06:25:41;;;;;;;0.30;0.30;;;0.50;99.90;;;;;;5095061;28;20422;-76
2022/04/02 06:28:08;;;;;;;0.30;0.30;;;0.50;99.90;;;;;;5096071;28;20428;-76
2022/04/02 06:30:36;;;;;;;0.30;0.30;;;0.60;99.90;;;;;;5095160;28;20808;-76
2022/04/02 06:33:04;;;;;;;0.53;0.53;;;0.60;99.90;;;;;;5095178;28;20447;-76
2022/04/02 06:35:31;;;;;;;0.30;0.30;;;0.50;99.90;;;;;;5094654;28;21016;-76
2022/04/02 06:37:58;;;;;;;0.30;0.30;;;0.50;99.90;;;;;;5094685;28;20420;-76
2022/04/02 06:40:26;;;;;;;1.53;1.33;;;0.60;99.90;;;;;;5094731;28;20451;-76
2022/04/02 06:42:53;;;;;;;0.30;0.30;;;0.60;99.90;;;;;;5094989;28;20437;-76
2022/04/02 06:45:20;;;;;;;0.33;0.33;;;0.60;99.90;;;;;;5094969;28;20455;-76
2022/04/02 06:47:48;;;;;;;0.30;0.30;;;0.60;99.90;;;;;;5094453;28;20814;-76
2022/04/02 06:50:15;;;;;;;0.30;0.30;;;0.70;99.90;;;;;;5095031;28;20499;-76
2022/04/02 06:52:43;;;;;;;0.30;0.30;;;0.70;99.90;;;;;;5093988;28;20446;-76
2022/04/02 06:55:11;;;;;;;0.30;0.30;;;0.70;99.90;;;;;;5094142;28;20476;-76
2022/04/02 06:57:41;;;;;;;0.30;0.30;;;0.80;99.90;;;;;;5094449;28;20452;-76
2022/04/02 07:00:09;;;;;;;0.93;0.80;;;0.80;99.90;;;;;;5094393;28;20499;-76
2022/04/02 07:02:36;;;;;;;0.30;0.30;;;0.90;99.90;;;;;;5094040;28;20407;-76
2022/04/02 07:05:05;;;;;;;0.70;0.70;;;0.90;99.90;;;;;;5094468;28;20812;-76
2022/04/02 07:07:32;;;;;;;0.30;0.30;;;0.90;99.90;;;;;;5094015;28;20965;-76
2022/04/02 07:09:59;;;;;;;0.30;0.30;;;0.80;99.90;;;;;;5094058;28;20979;-76
2022/04/02 07:12:26;;;;;;;0.30;0.30;;;0.90;99.90;;;;;;5094482;28;20414;-77
2022/04/02 07:14:54;;;;;;;0.30;0.30;;;0.80;99.90;;;;;;5095063;28;20909;-76
2022/04/02 07:17:21;;;;;;;0.30;0.30;;;0.90;99.90;;;;;;5094903;28;20447;-76
2022/04/02 07:19:48;;;;;;;0.30;0.30;;;0.80;99.90;;;;;;5094193;28;20474;-76
2022/04/02 07:22:18;;;;;;;0.60;0.60;;;0.90;99.90;;;;;;5094084;28;20432;-76
2022/04/02 07:24:46;;;;;;;0.30;0.30;;;0.80;99.90;;;;;;5095182;28;20431;-76
2022/04/02 07:27:12;;;;;;;0.30;0.30;;;0.80;99.90;;;;;;5093823;28;20430;-77
2022/04/02 07:29:40;;;;;;;0.30;0.30;;;0.80;99.90;;;;;;5093758;28;20468;-76
2022/04/02 07:32:09;;;;;;;0.30;0.30;;;0.80;99.90;;;;;;5093828;28;20426;-76
2022/04/02 07:34:36;;;;;;;0.30;0.30;;;0.80;99.90;;;;;;5093793;28;20462;-76
2022/04/02 07:37:08;;;;;;;0.30;0.30;;;0.90;99.90;;;;;;5093765;28;20452;-76
2022/04/02 07:39:44;;;;;;;0.30;0.30;;;0.80;99.90;;;;;;5093467;28;20979;-76
2022/04/02 07:42:23;;;;;;;1.23;0.60;;;0.80;99.90;;;;;;5093673;28;20797;-76
2022/04/02 07:45:01;;;;;;;0.30;0.30;;;0.80;99.90;;;;;;5093496;28;20502;-79
2022/04/02 07:47:32;;;;;;;0.30;0.30;;;0.80;99.90;;;;;;5093439;28;20971;-76
2022/04/02 07:50:02;;;;;;;1.90;1.80;;;0.80;99.90;;;;;;5093907;28;20474;-76
2022/04/02 07:52:29;;;;;;;0.30;0.30;;;0.70;99.90;;;;;;5093571;28;20407;-76
2022/04/02 07:54:59;;;;;;;0.30;0.30;;;0.70;99.90;;;;;;5093631;28;20507;-76
2022/04/02 07:57:29;;;;;;;0.30;0.30;;;0.70;99.90;;;;;;5093950;28;20539;-76
2022/04/02 08:00:00;;;;;;;0.30;0.30;;;0.70;99.90;;;;;;5093795;28;20562;-76
2022/04/02 08:02:42;;;;;;;0.40;0.40;;;0.70;99.90;;;;;;5093180;28;20379;-76
2022/04/02 08:05:11;;;;;;;0.77;0.70;;;0.70;99.90;;;;;;5097129;28;20828;-76
2022/04/02 08:07:43;;;;;;;0.30;0.27;;;0.70;99.90;;;;;;5097753;28;20969;-75
2022/04/02 08:10:13;;;;;;;0.30;0.30;;;0.70;99.90;;;;;;5097387;28;20483;-76
2022/04/02 08:12:41;;;;;;;1.07;1.07;;;0.80;99.90;;;;;;5098314;28;20436;-76
2022/04/02 08:15:11;;;;;;;0.37;0.37;;;0.70;99.90;;;;;;5097165;28;20450;-76
2022/04/02 08:17:40;;;;;;;0.30;0.30;;;0.80;99.90;;;;;;5097500;28;20428;-76
2022/04/02 08:20:09;;;;;;;0.30;0.30;;;0.90;99.90;;;;;;5097631;28;20506;-76
2022/04/02 08:22:36;;;;;;;0.40;0.40;;;0.90;99.90;;;;;;5097267;28;20423;-76
2022/04/02 08:25:03;;;;;;;0.30;0.30;;;0.90;99.90;;;;;;5098323;28;20875;-76
2022/04/02 08:27:35;;;;;;;0.30;0.30;;;0.90;99.90;;;;;;5097116;28;20428;-76
2022/04/02 08:30:07;;;;;;;0.30;0.30;;;0.80;99.90;;;;;;5097351;28;20517;-76
2022/04/02 08:33:08;;;;;;;0.30;0.30;;;0.90;99.90;;;;;;5097219;28;20440;-76
2022/04/02 08:35:40;;;;;;;0.30;0.30;;;0.90;99.90;;;;;;5096929;28;20956;-76
2022/04/02 08:38:19;;;;;;;0.30;0.30;;;0.80;99.90;;;;;;5097178;28;20493;-76
2022/04/02 08:41:23;;;;;;;0.60;0.60;;;0.70;99.90;;;;;;5096931;28;21036;-76
2022/04/02 08:44:28;;;;;;;0.30;0.30;;;0.70;99.90;;;;;;5097732;28;20425;-76
2022/04/02 08:47:10;;;;;;;0.30;0.30;;;0.70;99.90;;;;;;5096950;28;20436;-76
2022/04/02 08:49:41;;;;;;;0.30;0.30;;;0.70;99.90;;;;;;5096928;28;20507;-76
2022/04/02 08:52:21;;;;;;;0.30;0.30;;;0.80;99.90;;;;;;5096900;28;20482;-76
2022/04/02 08:55:12;;;;;;;0.30;0.30;;;0.80;99.90;;;;;;5096680;28;20442;-76
2022/04/02 08:58:08;;;;;;;0.40;0.40;;;0.80;99.90;;;;;;5096778;28;20414;-76
2022/04/02 09:00:41;;;;;;;0.30;0.20;;;0.70;99.90;;;;;;5096989;28;20439;-86
2022/04/02 09:03:55;;;;;;;0.30;0.30;;;0.80;99.90;;;;;;5101903;28;20902;-78
2022/04/02 09:07:13;;;;;;;0.30;0.30;;;0.70;99.90;;;;;;5103758;28;20392;-77
2022/04/02 09:10:13;;;;;;;0.40;0.40;;;0.80;99.90;;;;;;5098052;28;20459;-77
2022/04/02 09:12:56;;;;;;;0.40;0.40;;;0.80;99.90;;;;;;5089959;28;20539;-76
2022/04/02 09:15:33;;;;;;;0.70;0.70;;;0.80;99.90;;;;;;5096213;28;20450;-76
2022/04/02 09:18:20;;;;;;;0.30;0.30;;;0.80;99.90;;;;;;5097169;28;20432;-76
2022/04/02 09:20:55;;;;;;;0.30;0.30;;;0.80;99.90;;;;;;5097649;28;20476;-76
2022/04/02 09:23:41;;;;;;;0.30;0.30;;;0.80;99.90;;;;;;5097972;28;20493;-76
2022/04/02 09:26:31;;;;;;;0.70;0.47;;;0.80;99.90;;;;;;5097670;28;20805;-76
2022/04/02 09:29:14;;;;;;;0.70;0.40;;;0.90;99.90;;;;;;5096914;28;20440;-75
2022/04/02 09:32:21;;;;;;;0.30;0.30;;;0.90;99.90;;;;;;5077811;28;20448;-76
2022/04/02 09:35:13;;;;;;;0.30;0.30;;;0.90;99.90;;;;;;5095988;28;20451;-76
2022/04/02 09:38:09;;;;;;;0.40;0.40;;;1.00;99.90;;;;;;5096072;28;20456;-76
2022/04/02 09:40:44;;;;;;;0.30;0.20;;;1.00;99.90;;;;;;5095637;28;20983;-76
2022/04/02 09:43:19;;;;;;;0.30;0.30;;;0.90;99.90;;;;;;5095887;28;20435;-76
2022/04/02 09:46:04;;;;;;;0.30;0.30;;;0.90;99.90;;;;;;5095880;28;20490;-76
2022/04/02 09:48:43;;;;;;;0.40;0.40;;;0.80;99.90;;;;;;5095765;28;20407;-76
2022/04/02 09:51:15;;;;;;;0.67;0.50;;;0.80;99.90;;;;;;5095618;28;20478;-76
2022/04/02 09:53:47;;;;;;;0.93;0.70;;;0.80;99.90;;;;;;5095623;28;20455;-76
2022/04/02 09:56:26;;;;;;;0.93;0.93;;;0.80;99.90;;;;;;5095609;28;20460;-76
2022/04/02 09:59:07;;;;;;;0.77;0.77;;;0.70;99.90;;;;;;5095464;28;20439;-76
2022/04/02 10:01:39;;;;;;;0.30;0.30;;;0.70;99.90;;;;;;5095561;28;20444;-76
2022/04/02 10:04:21;;;;;;;0.30;0.30;;;0.70;99.90;;;;;;5095250;28;20596;-76
2022/04/02 10:06:50;;;;;;;2.10;0.87;;;0.70;99.90;;;;;;5095583;28;20519;-76
2022/04/02 10:09:20;;;;;;;0.30;0.30;;;0.60;99.90;;;;;;5095471;28;20474;-76
2022/04/02 10:11:51;;;;;;;0.40;0.40;;;0.60;99.90;;;;;;5095312;28;20459;-76
2022/04/02 10:14:21;;;;;;;0.30;0.30;;;0.60;99.90;;;;;;5095281;28;20509;-77
2022/04/02 10:16:51;;;;;;;0.30;0.30;;;0.60;99.90;;;;;;5095384;28;20479;-76
2022/04/02 10:19:19;;;;;;;0.63;0.63;;;0.50;99.90;;;;;;5095137;28;20971;-76
2022/04/02 10:21:51;;;;;;;0.30;0.30;;;0.60;99.90;;;;;;5095096;28;20459;-76
2022/04/02 10:24:21;;;;;;;0.60;0.60;;;0.50;99.90;;;;;;5095501;28;20482;-76
2022/04/02 10:26:50;;;;;;;0.30;0.30;;;0.50;99.90;;;;;;5094515;28;20450;-76
2022/04/02 10:29:35;;;;;;;0.30;0.30;;;0.50;99.90;;;;;;5095144;28;20471;-76
2022/04/02 10:32:12;;;;;;;0.30;0.20;;;0.50;99.90;;;;;;5094699;28;20879;-76
2022/04/02 10:34:49;;;;;;;0.40;0.40;;;0.50;99.90;;;;;;5095424;28;20424;-76
2022/04/02 10:37:19;;;;;;;0.30;0.30;;;0.50;99.90;;;;;;5095187;28;20463;-76
2022/04/02 10:39:53;;;;;;;0.30;0.30;;;0.60;99.90;;;;;;5095433;28;20467;-76
2022/04/02 10:42:25;;;;;;;0.30;0.20;;;0.70;99.90;;;;;;5094904;28;20482;-76
2022/04/02 10:44:58;;;;;;;0.50;0.50;;;0.70;99.90;;;;;;5094941;28;20436;-76
2022/04/02 10:47:29;;;;;;;0.87;0.87;;;0.70;99.90;;;;;;5094563;28;20416;-76
2022/04/02 10:50:03;;;;;;;0.50;0.50;;;0.70;99.90;;;;;;5094791;28;20466;-76
2022/04/02 10:52:32;;;;;;;0.40;0.40;;;0.70;99.90;;;;;;5094813;28;20455;-76
2022/04/02 10:54:59;;;;;;;0.60;0.60;;;0.70;99.90;;;;;;5095317;28;20451;-76
2022/04/02 10:57:28;;;;;;;1.37;0.40;;;0.80;99.90;;;;;;5094178;28;20459;-77
2022/04/02 11:00:00;;;;;;;0.40;0.40;;;0.80;99.90;;;;;;5094375;28;20488;-76
2022/04/02 11:02:39;;;;;;;0.30;0.30;;;0.90;99.90;;;;;;5094356;28;20436;-76
2022/04/02 11:05:07;;;;;;;0.30;0.30;;;0.90;99.90;;;;;;5093819;28;20528;-76
2022/04/02 11:07:40;;;;;;;0.30;0.30;;;1.00;99.90;;;;;;5094290;28;20432;-76
2022/04/02 11:10:08;;;;;;;0.30;0.30;;;1.00;99.90;;;;;;5094107;28;20471;-76
2022/04/02 11:12:39;;;;;;;0.53;0.53;;;1.00;99.90;;;;;;5094177;28;20403;-76
2022/04/02 11:15:11;;;;;;;0.67;0.67;;;1.00;99.90;;;;;;5094070;28;20526;-76
2022/04/02 11:17:41;;;;;;;0.40;0.40;;;1.00;99.90;;;;;;5094870;28;20435;-75
2022/04/02 11:20:10;;;;;;;0.30;0.30;;;0.90;99.90;;;;;;5093949;28;20483;-76
2022/04/02 11:22:50;;;;;;;0.30;0.30;;;0.90;99.90;;;;;;5093578;28;20931;-80
2022/04/02 11:25:22;;;;;;;0.87;0.87;;;0.90;99.90;;;;;;5093610;28;20432;-81
2022/04/02 11:27:51;;;;;;;0.30;0.30;;;0.90;99.90;;;;;;5093648;28;20947;-81
2022/04/02 11:30:19;;;;;;;0.50;0.50;;;0.90;99.90;;;;;;5093461;28;20978;-81
2022/04/02 11:32:47;;;;;;;0.40;0.30;;;0.80;99.90;;;;;;5093563;28;20456;-79
2022/04/02 11:35:16;;;;;;;0.30;0.30;;;0.80;99.90;;;;;;5093392;28;20950;-80
2022/04/02 11:38:02;;;;;;;0.37;0.30;;;0.80;99.90;;;;;;5093432;28;20912;-79
2022/04/02 11:40:31;;;;;;;0.30;0.27;;;0.70;99.90;;;;;;5094172;28;20463;-83
2022/04/02 11:43:02;;;;;;;0.30;0.30;;;0.80;99.90;;;;;;5093656;28;20860;-80
2022/04/02 11:45:30;;;;;;;0.30;0.20;;;0.90;99.90;;;;;;5093629;28;20887;-79
2022/04/02 11:48:00;;;;;;;1.07;0.50;;;0.90;99.90;;;;;;5093649;28;20857;-82
2022/04/02 11:50:30;;;;;;;0.30;0.30;;;0.90;99.90;;;;;;5093565;28;20439;-82
2022/04/02 11:52:59;;;;;;;0.30;0.30;;;0.80;99.90;;;;;;5093556;28;20501;-80
2022/04/02 11:55:28;;;;;;;0.30;0.30;;;0.80;99.90;;;;;;5093482;28;20447;-79
2022/04/02 11:58:00;;;;;;;0.30;0.30;;;0.90;99.90;;;;;;5093525;28;20452;-81
2022/04/02 12:00:27;;;;;;;0.30;0.30;;;0.80;99.90;;;;;;5093457;28;20830;-80
2022/04/02 12:02:55;;;;;;;0.30;0.30;;;0.80;99.90;;;;;;5093140;28;20845;-80
2022/04/02 12:05:33;;;;;;;0.30;0.30;;;0.80;99.90;;;;;;5093019;28;20483;-79
2022/04/02 12:08:02;;;;;;;0.30;0.30;;;0.80;99.90;;;;;;5093461;28;20447;-79
2022/04/02 12:10:31;;;;;;;0.30;0.30;;;0.80;99.90;;;;;;5093332;28;20464;-79
2022/04/02 12:13:02;;;;;;;0.47;0.47;;;0.80;99.90;;;;;;5093415;28;20493;-81
2022/04/02 12:15:29;;;;;;;0.50;0.50;;;0.90;99.90;;;;;;5093444;28;20527;-80
2022/04/02 12:18:01;;;;;;;1.23;0.60;;;1.00;99.90;;;;;;5097661;28;20459;-79
2022/04/02 12:20:29;;;;;;;0.30;0.30;;;1.00;99.90;;;;;;5099515;28;20467;-84
2022/04/02 12:23:11;;;;;;;0.30;0.30;;;1.00;99.90;;;;;;5096651;28;20440;-80
2022/04/02 12:25:38;;;;;;;0.30;0.30;;;1.10;99.90;;;;;;5093596;28;20937;-84
2022/04/02 12:28:14;;;;;;;0.60;0.60;;;1.10;99.90;;;;;;5093675;28;20788;-81
2022/04/02 12:30:46;;;;;;;0.40;0.40;;;1.00;99.90;;;;;;5093469;28;20472;-81
2022/04/02 12:33:15;;;;;;;0.30;0.30;;;1.00;99.90;;;;;;5093410;28;20443;-81
2022/04/02 12:35:46;;;;;;;0.30;0.30;;;1.00;99.90;;;;;;5093123;28;20454;-80
2022/04/02 12:38:25;;;;;;;0.50;0.50;;;1.00;99.90;;;;;;5092926;28;20462;-81
2022/04/02 12:40:52;;;;;;;0.50;0.50;;;0.90;99.90;;;;;;5093228;28;20546;-83
2022/04/02 12:43:25;;;;;;;0.30;0.20;;;1.00;99.90;;;;;;5093220;28;20443;-80
2022/04/02 12:45:52;;;;;;;0.30;0.30;;;1.00;99.90;;;;;;5093144;28;20460;-81
2022/04/02 12:48:20;;;;;;;0.30;0.30;;;1.00;99.90;;;;;;5092732;28;20459;-82
2022/04/02 12:50:51;;;;;;;0.30;0.30;;;1.00;99.90;;;;;;5096153;28;20442;-81
2022/04/02 12:53:29;;;;;;;0.30;0.30;;;1.00;99.90;;;;;;5097036;28;20424;-83
2022/04/02 12:55:57;;;;;;;0.30;0.23;;;0.90;99.90;;;;;;5096838;28;20418;-81
2022/04/02 12:58:32;;;;;;;0.30;0.30;;;0.90;99.90;;;;;;5096885;28;20443;-81
2022/04/02 13:01:09;;;;;;;0.30;0.30;;;0.90;99.90;;;;;;5096386;28;20467;-83
2022/04/02 13:03:42;;;;;;;0.30;0.20;;;0.80;99.90;;;;;;5096476;28;20502;-82
2022/04/02 13:06:17;;;;;;;0.30;0.30;;;0.80;99.90;;;;;;5096653;28;20964;-82
2022/04/02 13:08:55;;;;;;;0.30;0.20;;;0.80;99.90;;;;;;5096623;28;20467;-82
2022/04/02 13:11:35;;;;;;;1.03;1.03;;;0.80;99.90;;;;;;5096600;28;20798;-82
2022/04/02 13:14:04;;;;;;;0.30;0.20;;;0.70;99.90;;;;;;5096310;28;20925;-81
2022/04/02 13:16:38;;;;;;;0.70;0.70;;;0.70;99.90;;;;;;5096972;28;20549;-83
2022/04/02 13:21:51;;;;;;;0.47;0.47;;;0.70;99.90;;;;;;5096547;28;20400;-84
2022/04/02 13:24:29;;;;;;;0.30;0.30;;;0.70;99.90;;;;;;5096229;28;20448;-82